createdAt,value
2023-05-03T00:00:56.097Z,3.90
2023-05-03T00:03:24.450Z,3.57
2023-05-03T00:05:52.356Z,3.50
2023-05-03T00:08:20.181Z,4.90
2023-05-03T00:10:47.979Z,4.10
2023-05-03T00:13:15.680Z,4.03
2023-05-03T00:15:43.449Z,3.90
2023-05-03T00:18:12.679Z,3.90
2023-05-03T00:20:40.732Z,4.20
2023-05-03T00:23:08.869Z,3.93
2023-05-03T00:25:36.423Z,4.10
2023-05-03T00:28:03.921Z,4.80
2023-05-03T00:30:31.392Z,4.30
2023-05-03T00:32:59.281Z,4.60
2023-05-03T00:35:29.332Z,4.03
2023-05-03T00:37:56.782Z,5.13
2023-05-03T00:40:24.294Z,3.80
2023-05-03T00:42:51.809Z,3.90
2023-05-03T00:45:20.121Z,3.67
2023-05-03T00:47:47.746Z,3.50
2023-05-03T00:50:15.592Z,4.13
2023-05-03T00:52:44.425Z,4.80
2023-05-03T00:55:12.601Z,4.33
2023-05-03T00:57:40.064Z,4.17
2023-05-03T01:00:10.881Z,3.87
2023-05-03T01:02:38.775Z,4.27
2023-05-03T01:05:07.449Z,3.80
2023-05-03T01:07:41.078Z,4.03
2023-05-03T01:10:15.916Z,4.63
2023-05-03T01:12:46.227Z,4.30
2023-05-03T01:15:24.349Z,4.13
2023-05-03T01:17:52.679Z,3.87
2023-05-03T01:20:25.248Z,3.97
2023-05-03T01:23:12.334Z,4.27
2023-05-03T01:25:41.802Z,4.50
2023-05-03T01:28:09.406Z,4.87
2023-05-03T01:30:37.763Z,4.63
2023-05-03T01:33:06.799Z,5.00
2023-05-03T01:35:37.780Z,4.93
2023-05-03T01:38:06.175Z,5.20
2023-05-03T01:40:35.414Z,4.63
2023-05-03T01:43:05.638Z,5.17
2023-05-03T01:45:33.216Z,5.03
2023-05-03T01:48:01.053Z,4.53
2023-05-03T01:50:28.537Z,5.60
2023-05-03T01:52:56.016Z,4.77
2023-05-03T01:55:23.824Z,4.27
2023-05-03T01:57:51.576Z,4.97
2023-05-03T02:00:20.929Z,4.33
2023-05-03T02:02:49.032Z,5.27
2023-05-03T02:05:16.630Z,4.70
2023-05-03T02:07:44.195Z,4.60
2023-05-03T02:10:14.601Z,4.90
2023-05-03T02:12:42.757Z,4.23
2023-05-03T02:15:10.631Z,4.70
2023-05-03T02:17:40.430Z,4.17
2023-05-03T02:20:09.804Z,4.30
2023-05-03T02:22:37.824Z,4.63
2023-05-03T02:25:06.490Z,5.30
2023-05-03T02:27:34.432Z,4.73
2023-05-03T02:30:02.407Z,4.70
2023-05-03T02:32:30.227Z,4.40
2023-05-03T02:34:59.239Z,4.40
2023-05-03T02:37:26.696Z,4.53
2023-05-03T02:39:54.195Z,5.50
2023-05-03T02:42:21.663Z,4.70
2023-05-03T02:44:49.093Z,4.70
2023-05-03T02:47:16.547Z,4.63
2023-05-03T02:49:44.001Z,5.00
2023-05-03T02:52:12.852Z,4.90
2023-05-03T02:54:40.366Z,4.80
2023-05-03T02:57:07.832Z,5.00
2023-05-03T02:59:35.423Z,5.07
2023-05-03T03:02:03.322Z,4.63
2023-05-03T03:04:30.922Z,5.30
2023-05-03T03:06:58.399Z,5.37
2023-05-03T03:09:27.329Z,4.67
2023-05-03T03:11:55.387Z,5.23
2023-05-03T03:14:23.154Z,4.60
2023-05-03T03:16:52.216Z,5.30
2023-05-03T03:19:19.751Z,4.60
2023-05-03T03:21:47.355Z,5.40
2023-05-03T03:24:15.812Z,4.70
2023-05-03T03:26:44.915Z,4.40
2023-05-03T03:29:12.827Z,5.17
2023-05-03T03:31:40.362Z,4.77
2023-05-03T03:34:07.883Z,4.43
2023-05-03T03:36:37.106Z,4.23
2023-05-03T03:39:05.064Z,5.10
2023-05-03T03:41:32.851Z,5.17
2023-05-03T03:44:01.860Z,4.90
2023-05-03T03:46:29.405Z,5.30
2023-05-03T03:48:56.921Z,6.17
2023-05-03T03:51:24.450Z,5.47
2023-05-03T03:53:52.569Z,4.33
2023-05-03T03:56:20.063Z,5.00
2023-05-03T03:58:47.536Z,4.60
2023-05-03T04:01:16.782Z,5.30
2023-05-03T04:03:46.566Z,5.00
2023-05-03T04:06:14.505Z,6.40
2023-05-03T04:08:42.093Z,5.47
2023-05-03T04:11:11.611Z,5.80
2023-05-03T04:13:39.318Z,4.80
2023-05-03T04:16:07.267Z,5.27
2023-05-03T04:18:36.157Z,4.97
2023-05-03T04:21:03.648Z,4.33
2023-05-03T04:23:31.822Z,4.63
2023-05-03T04:25:59.425Z,6.43
2023-05-03T04:28:27.078Z,5.23
2023-05-03T04:30:55.228Z,4.53
2023-05-03T04:33:23.406Z,7.43
2023-05-03T04:35:52.744Z,5.13
2023-05-03T04:38:20.869Z,5.07
2023-05-03T04:40:48.355Z,4.73
2023-05-03T04:43:16.439Z,4.70
2023-05-03T04:45:44.061Z,4.23
2023-05-03T04:48:11.929Z,4.03
2023-05-03T04:50:39.893Z,4.07
2023-05-03T04:53:08.788Z,5.97
2023-05-03T04:55:36.257Z,5.20
2023-05-03T04:58:03.785Z,4.80
2023-05-03T05:00:33.979Z,4.70
2023-05-03T05:03:01.821Z,3.57
2023-05-03T05:05:29.743Z,3.43
2023-05-03T05:07:58.190Z,2.87
2023-05-03T05:10:27.070Z,3.13
2023-05-03T05:12:54.585Z,2.67
2023-05-03T05:15:22.067Z,2.50
2023-05-03T05:17:50.215Z,3.27
2023-05-03T05:20:18.928Z,2.20
2023-05-03T05:22:46.583Z,2.40
2023-05-03T05:25:14.327Z,2.37
2023-05-03T05:27:43.430Z,2.03
2023-05-03T05:30:11.144Z,2.23
2023-05-03T05:32:38.666Z,2.10
2023-05-03T05:35:06.667Z,2.30
2023-05-03T05:37:34.610Z,2.83
2023-05-03T05:40:02.416Z,2.03
2023-05-03T05:42:30.268Z,2.37
2023-05-03T05:44:59.110Z,2.10
2023-05-03T05:47:27.225Z,2.10
2023-05-03T05:49:54.847Z,2.50
2023-05-03T05:52:22.306Z,2.00
2023-05-03T05:54:49.761Z,2.30
2023-05-03T05:57:17.242Z,2.60
2023-05-03T05:59:44.785Z,2.20
2023-05-03T06:02:16.601Z,2.47
2023-05-03T06:04:44.384Z,2.27
2023-05-03T06:07:11.801Z,2.33
2023-05-03T06:09:42.262Z,1.90
2023-05-03T06:12:10.455Z,2.00
2023-05-03T06:14:38.171Z,2.03
2023-05-03T06:17:07.355Z,2.07
2023-05-03T06:19:36.253Z,2.47
2023-05-03T06:22:03.924Z,1.70
2023-05-03T06:24:33.023Z,1.90
2023-05-03T06:27:00.916Z,2.03
2023-05-03T06:29:29.440Z,2.00
2023-05-03T06:31:56.846Z,2.00
2023-05-03T06:34:24.270Z,1.80
2023-05-03T06:36:53.370Z,2.37
2023-05-03T06:39:20.860Z,2.23
2023-05-03T06:41:49.211Z,2.20
2023-05-03T06:44:17.068Z,1.70
2023-05-03T06:46:44.601Z,1.67
2023-05-03T06:49:12.496Z,1.80
2023-05-03T06:51:40.153Z,1.80
2023-05-03T06:54:09.960Z,1.80
2023-05-03T06:56:37.878Z,1.90
2023-05-03T06:59:06.090Z,1.90
2023-05-03T07:01:34.239Z,1.90
2023-05-03T07:04:02.783Z,2.40
2023-05-03T07:06:37.765Z,1.60
2023-05-03T07:09:14.483Z,1.50
2023-05-03T07:11:49.319Z,1.50
2023-05-03T07:14:17.018Z,2.00
2023-05-03T07:16:45.459Z,1.80
2023-05-03T07:19:13.431Z,2.60
2023-05-03T07:21:41.744Z,1.50
2023-05-03T07:24:12.751Z,1.80
2023-05-03T07:26:43.740Z,1.80
2023-05-03T07:29:12.028Z,1.60
2023-05-03T07:31:39.644Z,1.50
2023-05-03T07:34:07.667Z,2.00
2023-05-03T07:36:35.156Z,1.43
2023-05-03T07:39:02.642Z,1.90
2023-05-03T07:41:30.105Z,1.90
2023-05-03T07:43:59.455Z,1.67
2023-05-03T07:46:28.153Z,2.03
2023-05-03T07:48:56.114Z,1.97
2023-05-03T07:51:23.622Z,1.67
2023-05-03T07:53:51.258Z,1.70
2023-05-03T07:56:19.131Z,2.27
2023-05-03T07:58:51.010Z,1.50
2023-05-03T08:01:26.303Z,1.60
2023-05-03T08:03:54.138Z,1.83
2023-05-03T08:06:21.905Z,1.60
2023-05-03T08:08:49.448Z,2.10
2023-05-03T08:11:17.106Z,1.63
2023-05-03T08:13:44.978Z,1.50
2023-05-03T08:16:12.998Z,1.57
2023-05-03T08:18:42.004Z,1.50
2023-05-03T08:21:09.815Z,2.23
2023-05-03T08:23:37.889Z,1.30
2023-05-03T08:26:07.588Z,1.40
2023-05-03T08:28:35.358Z,1.42
2023-05-03T08:31:04.890Z,1.25
2023-05-03T08:33:32.619Z,1.33
2023-05-03T08:36:02.042Z,1.35
2023-05-03T08:38:29.814Z,2.70
2023-05-03T08:40:59.179Z,1.70
2023-05-03T08:43:28.474Z,1.90
2023-05-03T08:45:56.066Z,1.60
2023-05-03T08:48:23.925Z,1.40
2023-05-03T08:50:52.767Z,2.05
2023-05-03T08:53:21.742Z,1.63
2023-05-03T08:55:49.329Z,1.65
2023-05-03T08:58:16.759Z,1.90
2023-05-03T09:00:45.231Z,1.88
2023-05-03T09:03:13.359Z,1.45
2023-05-03T09:05:41.439Z,1.58
2023-05-03T09:08:10.108Z,1.63
2023-05-03T09:10:42.736Z,1.67
2023-05-03T09:13:12.073Z,1.60
2023-05-03T09:15:39.687Z,1.50
2023-05-03T09:18:11.073Z,2.03
2023-05-03T09:20:39.667Z,1.67
2023-05-03T09:23:07.654Z,1.80
2023-05-03T09:25:42.890Z,1.93
2023-05-03T09:28:10.412Z,2.07
2023-05-03T09:30:38.246Z,1.70
2023-05-03T09:33:06.207Z,1.70
2023-05-03T09:35:34.889Z,2.03
2023-05-03T09:38:02.997Z,1.80
2023-05-03T09:40:30.797Z,1.70
2023-05-03T09:43:09.292Z,2.07
2023-05-03T09:45:37.037Z,1.87
2023-05-03T09:48:05.680Z,2.00
2023-05-03T09:50:33.549Z,1.90
2023-05-03T09:53:03.401Z,1.90
2023-05-03T09:55:33.081Z,2.03
2023-05-03T09:58:01.451Z,2.00
2023-05-03T10:00:31.538Z,2.00
2023-05-03T10:03:00.124Z,2.03
2023-05-03T10:05:28.000Z,1.67
2023-05-03T10:07:56.659Z,1.80
2023-05-03T10:10:24.648Z,2.40
2023-05-03T10:12:53.958Z,1.50
2023-05-03T10:15:23.636Z,2.00
2023-05-03T10:17:54.496Z,2.00
2023-05-03T10:20:26.326Z,1.57
2023-05-03T10:23:10.971Z,2.00
2023-05-03T10:25:39.029Z,1.80
2023-05-03T10:28:07.290Z,2.23
2023-05-03T10:30:35.599Z,1.47
2023-05-03T10:33:18.187Z,2.57
2023-05-03T10:35:52.313Z,1.57
2023-05-03T10:38:21.943Z,1.60
2023-05-03T10:40:49.708Z,1.73
2023-05-03T10:43:35.910Z,1.90
2023-05-03T10:46:05.596Z,1.60
2023-05-03T10:48:33.704Z,1.97
2023-05-03T10:51:25.009Z,1.80
2023-05-03T10:53:52.513Z,1.50
2023-05-03T10:56:20.268Z,1.77
2023-05-03T10:58:50.705Z,1.53
2023-05-03T11:01:19.270Z,1.87
2023-05-03T11:03:51.532Z,2.00
2023-05-03T11:06:30.278Z,1.80
2023-05-03T11:08:58.771Z,2.30
2023-05-03T11:11:26.339Z,1.43
2023-05-03T11:13:54.311Z,1.57
2023-05-03T11:16:22.138Z,1.53
2023-05-03T11:18:49.582Z,2.13
2023-05-03T11:21:20.117Z,1.73
2023-05-03T11:23:49.060Z,1.50
2023-05-03T11:26:17.682Z,1.53
2023-05-03T11:28:45.871Z,2.13
2023-05-03T11:31:13.748Z,1.70
2023-05-03T11:33:42.269Z,1.70
2023-05-03T11:36:11.240Z,2.88
2023-05-03T11:38:39.299Z,1.67
2023-05-03T11:41:17.916Z,2.00
2023-05-03T11:43:46.689Z,1.67
2023-05-03T11:46:16.279Z,1.60
2023-05-03T11:48:45.057Z,1.90
2023-05-03T11:51:14.162Z,1.40
2023-05-03T11:53:43.618Z,1.60
2023-05-03T11:56:14.145Z,1.40
2023-05-03T11:58:52.526Z,1.70
2023-05-03T12:01:20.302Z,1.40
2023-05-03T12:03:49.718Z,1.50
2023-05-03T12:06:18.139Z,1.58
2023-05-03T12:08:47.048Z,1.90
2023-05-03T12:11:15.321Z,2.35
2023-05-03T12:13:44.999Z,1.30
2023-05-03T12:16:19.190Z,1.50
2023-05-03T12:18:47.942Z,2.27
2023-05-03T12:23:50.329Z,1.67
2023-05-03T12:26:19.128Z,1.70
2023-05-03T12:28:47.395Z,1.63
2023-05-03T12:31:18.520Z,1.50
2023-05-03T12:34:02.030Z,1.60
2023-05-03T12:36:37.108Z,1.63
2023-05-03T12:39:09.246Z,1.40
2023-05-03T12:44:10.597Z,1.70
2023-05-03T12:46:40.708Z,1.80
2023-05-03T12:49:14.547Z,1.90
2023-05-03T12:51:43.452Z,1.80
2023-05-03T12:54:12.709Z,1.80
2023-05-03T12:56:41.462Z,1.40
2023-05-03T13:06:43.842Z,1.85
2023-05-03T13:09:19.343Z,1.50
2023-05-03T13:11:50.213Z,2.25
2023-05-03T13:14:17.944Z,1.63
2023-05-03T13:16:46.857Z,1.70
2023-05-03T13:19:21.364Z,1.67
2023-05-03T13:21:50.292Z,1.63
2023-05-03T13:24:17.933Z,1.80
2023-05-03T13:26:45.394Z,1.60
2023-05-03T13:29:12.809Z,1.70
2023-05-03T13:31:40.483Z,1.55
2023-05-03T13:34:09.470Z,1.60
2023-05-03T13:36:37.042Z,1.67
2023-05-03T13:39:04.528Z,1.42
2023-05-03T13:41:32.195Z,1.40
2023-05-03T13:43:59.616Z,1.40
2023-05-03T13:46:27.249Z,1.70
2023-05-03T13:48:56.378Z,1.33
2023-05-03T13:51:25.893Z,1.73
2023-05-03T13:53:53.391Z,1.83
2023-05-03T13:56:21.665Z,1.90
2023-05-03T13:58:49.136Z,1.83
2023-05-03T14:01:17.277Z,1.63
2023-05-03T14:03:45.199Z,1.90
2023-05-03T14:06:12.767Z,2.03
2023-05-03T14:08:41.758Z,1.70
2023-05-03T14:11:13.062Z,1.60
2023-05-03T14:13:54.686Z,1.70
2023-05-03T14:18:55.689Z,1.70
2023-05-03T14:21:23.259Z,1.80
2023-05-03T14:23:52.667Z,1.60
2023-05-03T14:26:22.164Z,1.70
2023-05-03T14:28:50.279Z,1.80
2023-05-03T14:31:17.808Z,1.77
2023-05-03T14:33:45.581Z,1.70
2023-05-03T14:36:13.344Z,1.60
2023-05-03T14:38:40.788Z,1.73
2023-05-03T14:41:09.662Z,1.50
2023-05-03T14:43:37.102Z,1.53
2023-05-03T14:46:04.607Z,2.47
2023-05-03T14:48:32.064Z,1.80
2023-05-03T14:50:59.545Z,1.80
2023-05-03T14:53:27.035Z,2.00
2023-05-03T14:55:54.501Z,1.67
2023-05-03T14:58:23.300Z,1.40
2023-05-03T15:00:50.853Z,1.90
2023-05-03T15:03:18.478Z,1.83
2023-05-03T15:05:46.618Z,1.30
2023-05-03T15:08:15.241Z,2.70
2023-05-03T15:10:44.495Z,2.07
2023-05-03T15:13:12.286Z,1.50
2023-05-03T15:15:43.407Z,1.83
2023-05-03T15:18:11.448Z,1.73
2023-05-03T15:20:39.264Z,1.80
2023-05-03T15:23:06.925Z,1.60
2023-05-03T15:25:35.666Z,1.70
2023-05-03T15:28:04.674Z,1.60
2023-05-03T15:30:32.838Z,2.27
2023-05-03T15:33:02.183Z,1.90
2023-05-03T15:35:29.869Z,1.50
2023-05-03T15:37:57.426Z,2.27
2023-05-03T15:40:27.027Z,1.60
2023-05-03T15:42:54.765Z,2.37
2023-05-03T15:45:23.306Z,2.00
2023-05-03T15:47:51.025Z,1.60
2023-05-03T15:50:20.073Z,1.90
2023-05-03T15:52:47.526Z,1.70
2023-05-03T15:55:15.246Z,2.00
2023-05-03T15:57:43.154Z,1.60
2023-05-03T16:00:12.938Z,1.60
2023-05-03T16:02:40.676Z,2.03
2023-05-03T16:05:08.483Z,1.80
2023-05-03T16:07:37.380Z,2.10
2023-05-03T16:10:05.240Z,2.20
2023-05-03T16:12:32.875Z,1.70
2023-05-03T16:15:01.005Z,1.70
2023-05-03T16:17:28.683Z,2.00
2023-05-03T16:19:56.316Z,2.20
2023-05-03T16:22:23.876Z,2.10
2023-05-03T16:24:53.653Z,1.97
2023-05-03T16:27:21.474Z,2.00
2023-05-03T16:29:48.957Z,1.70
2023-05-03T16:32:16.873Z,1.87
2023-05-03T16:34:44.343Z,2.07
2023-05-03T16:37:11.829Z,1.40
2023-05-03T16:39:39.512Z,1.53
2023-05-03T16:42:08.413Z,1.63
2023-05-03T16:44:36.245Z,1.70
2023-05-03T16:47:05.160Z,2.13
2023-05-03T16:49:33.736Z,2.20
2023-05-03T16:52:01.358Z,1.70
2023-05-03T16:54:29.042Z,1.73
2023-05-03T16:56:56.698Z,1.70
2023-05-03T16:59:25.813Z,2.13
2023-05-03T17:01:53.324Z,1.70
2023-05-03T17:04:20.837Z,1.80
2023-05-03T17:06:48.307Z,1.80
2023-05-03T17:09:16.374Z,1.50
2023-05-03T17:11:43.803Z,1.67
2023-05-03T17:14:11.572Z,1.80
2023-05-03T17:16:42.193Z,1.70
2023-05-03T17:19:10.196Z,1.70
2023-05-03T17:21:37.690Z,2.10
2023-05-03T17:24:05.288Z,1.90
2023-05-03T17:26:32.940Z,2.00
2023-05-03T17:29:00.426Z,1.90
2023-05-03T17:31:27.999Z,2.20
2023-05-03T17:33:57.013Z,2.00
2023-05-03T17:36:24.746Z,1.80
2023-05-03T17:38:52.577Z,1.87
2023-05-03T17:41:21.561Z,1.80
2023-05-03T17:43:49.717Z,1.90
2023-05-03T17:46:20.281Z,2.30
2023-05-03T17:48:48.637Z,1.70
2023-05-03T17:51:17.644Z,1.80
2023-05-03T17:53:45.184Z,2.50
2023-05-03T17:56:16.069Z,1.80
2023-05-03T17:58:43.912Z,2.03
2023-05-03T18:01:13.192Z,1.87
2023-05-03T18:03:41.663Z,1.90
2023-05-03T18:06:10.567Z,1.90
2023-05-03T18:08:39.399Z,1.90
2023-05-03T18:11:07.264Z,2.20
2023-05-03T18:13:34.724Z,2.30
2023-05-03T18:16:02.922Z,2.13
2023-05-03T18:18:30.357Z,2.53
2023-05-03T18:20:58.237Z,2.07
2023-05-03T18:23:25.663Z,2.30
2023-05-03T18:25:54.970Z,2.10
2023-05-03T18:28:23.805Z,2.40
2023-05-03T18:30:52.744Z,1.93
2023-05-03T18:33:20.664Z,2.03
2023-05-03T18:35:48.754Z,2.20
2023-05-03T18:38:16.558Z,2.47
2023-05-03T18:40:44.028Z,2.57
2023-05-03T18:43:12.863Z,2.30
2023-05-03T18:45:40.435Z,2.47
2023-05-03T18:48:08.292Z,2.30
2023-05-03T18:50:36.546Z,2.60
2023-05-03T18:53:04.055Z,2.50
2023-05-03T18:55:31.649Z,2.77
2023-05-03T18:57:59.536Z,2.60
2023-05-03T19:00:28.665Z,2.60
2023-05-03T19:02:56.166Z,3.33
2023-05-03T19:05:23.879Z,2.80
2023-05-03T19:07:51.646Z,3.27
2023-05-03T19:10:20.051Z,3.63
2023-05-03T19:12:47.977Z,2.70
2023-05-03T19:15:15.433Z,3.40
2023-05-03T19:17:44.819Z,3.63
2023-05-03T19:20:12.872Z,3.47
2023-05-03T19:22:40.544Z,3.93
2023-05-03T19:25:08.509Z,4.03
2023-05-03T19:27:36.185Z,3.73
2023-05-03T19:30:04.391Z,3.60
2023-05-03T19:32:35.383Z,3.50
2023-05-03T19:35:05.444Z,3.80
2023-05-03T19:37:33.072Z,3.50
2023-05-03T19:40:00.648Z,3.80
2023-05-03T19:42:28.163Z,4.50
2023-05-03T19:44:55.605Z,3.57
2023-05-03T19:47:23.685Z,3.77
2023-05-03T19:49:51.497Z,3.67
2023-05-03T19:52:21.330Z,4.10
2023-05-03T19:54:48.966Z,3.50
2023-05-03T19:57:16.784Z,3.13
2023-05-03T19:59:44.358Z,3.00
2023-05-03T20:02:12.404Z,3.77
2023-05-03T20:04:40.175Z,2.93
2023-05-03T20:07:07.598Z,3.47
2023-05-03T20:09:37.113Z,3.70
2023-05-03T20:12:04.860Z,3.37
2023-05-03T20:14:33.431Z,3.87
2023-05-03T20:17:01.496Z,4.00
2023-05-03T20:19:29.447Z,4.13
2023-05-03T20:21:57.003Z,4.00
2023-05-03T20:24:24.493Z,4.70
2023-05-03T20:26:54.189Z,5.50
2023-05-03T20:29:21.696Z,4.50
2023-05-03T20:31:51.518Z,4.63
2023-05-03T20:34:19.811Z,4.90
2023-05-03T20:36:49.415Z,4.20
2023-05-03T20:39:16.898Z,4.90
2023-05-03T20:41:44.668Z,4.30
2023-05-03T20:44:13.938Z,4.57
2023-05-03T20:46:44.794Z,4.00
2023-05-03T20:49:12.341Z,4.47
2023-05-03T20:51:39.996Z,3.77
2023-05-03T20:54:07.527Z,4.17
2023-05-03T20:56:34.966Z,3.80
2023-05-03T20:59:03.474Z,3.80
2023-05-03T21:01:32.397Z,4.07
2023-05-03T21:03:59.918Z,3.53
2023-05-03T21:06:28.122Z,3.90
2023-05-03T21:08:56.200Z,4.13
2023-05-03T21:11:24.766Z,4.47
2023-05-03T21:13:52.266Z,4.33
2023-05-03T21:16:19.734Z,4.60
2023-05-03T21:18:48.591Z,4.93
2023-05-03T21:21:16.229Z,4.63
2023-05-03T21:23:44.539Z,5.33
2023-05-03T21:26:12.513Z,5.30
2023-05-03T21:28:40.069Z,4.90
2023-05-03T21:31:07.647Z,4.37
2023-05-03T21:33:35.153Z,5.37
2023-05-03T21:36:06.869Z,5.40
2023-05-03T21:38:34.522Z,5.27
2023-05-03T21:41:05.532Z,5.30
2023-05-03T21:43:34.241Z,5.83
2023-05-03T21:46:01.815Z,6.70
2023-05-03T21:48:29.397Z,5.37
2023-05-03T21:50:57.134Z,4.97
2023-05-03T21:53:26.292Z,5.50
2023-05-03T21:55:53.936Z,6.43
2023-05-03T21:58:22.228Z,6.00
2023-05-03T22:00:50.550Z,5.43
2023-05-03T22:03:18.092Z,5.67
2023-05-03T22:05:48.290Z,5.27
2023-05-03T22:08:18.152Z,5.97
2023-05-03T22:10:47.050Z,6.10
2023-05-03T22:13:14.668Z,5.80
2023-05-03T22:15:42.912Z,4.93
2023-05-03T22:18:10.492Z,5.57
2023-05-03T22:20:37.983Z,5.27
2023-05-03T22:23:05.837Z,5.10
2023-05-03T22:25:33.420Z,4.73
2023-05-03T22:28:02.400Z,5.53
2023-05-03T22:30:30.828Z,4.93
2023-05-03T22:32:58.336Z,5.00
2023-05-03T22:35:25.831Z,5.23
2023-05-03T22:37:53.376Z,6.33
2023-05-03T22:40:20.946Z,5.53
2023-05-03T22:42:48.398Z,5.40
2023-05-03T22:45:17.715Z,5.10
2023-05-03T22:47:45.565Z,5.30
2023-05-03T22:50:13.006Z,4.57
2023-05-03T22:52:40.868Z,5.30
2023-05-03T22:55:09.111Z,5.63
2023-05-03T22:57:36.710Z,5.53
2023-05-03T23:00:04.686Z,5.37
2023-05-03T23:02:35.199Z,5.07
2023-05-03T23:05:02.773Z,5.30
2023-05-03T23:07:30.373Z,5.50
2023-05-03T23:10:01.242Z,5.93
2023-05-03T23:12:29.446Z,4.80
2023-05-03T23:14:57.005Z,5.77
2023-05-03T23:17:26.057Z,5.77
2023-05-03T23:19:54.945Z,5.87
2023-05-03T23:22:23.785Z,5.13
2023-05-03T23:24:51.387Z,4.93
2023-05-03T23:27:19.300Z,5.27
2023-05-03T23:29:48.228Z,5.53
2023-05-03T23:32:16.160Z,5.10
2023-05-03T23:34:44.610Z,5.47
2023-05-03T23:37:13.746Z,5.10
2023-05-03T23:39:43.773Z,5.27
2023-05-03T23:42:11.982Z,5.60
2023-05-03T23:44:53.871Z,5.77
2023-05-03T23:47:22.772Z,5.20
2023-05-03T23:49:50.394Z,5.40
2023-05-03T23:52:20.502Z,7.33
2023-05-03T23:54:49.648Z,5.23
2023-05-03T23:57:17.452Z,5.60
2023-05-03T23:59:45.312Z,6.20
